Catàleg de serveis del Meteocat
Campanya meteocatpedra

Dades de l'estació automàtica Port de Barcelona - Bocana Sud

?
?
Resum diari 17:30 TU
Dades diàries de l'estació meteorològica
Ratxa màxima del vent (10 m) 32.0 km/h - 37º 8:40 TU

El tram horari està expressat en Temps Universal (TU). Cal sumar una hora en horari d'hivern i dues en horari d'estiu per passar a l'hora oficial.

Port de Barcelona - Bocana Sud

Metadades estació meteorol´gica
Municipi El Prat de Llobregat
Comarca Baix Llobregat
Altitud 3 m
Data alta 08.04.2015
Estat actual Operativa
Dades de període
Període
TU
VVM (10 m)
km/h
DVM (10 m)
graus
VVX (10 m)
km/h
00:00 - 00:30 1.8 48 4.3
00:30 - 01:00 3.2 43 5.4
01:00 - 01:30 2.9 24 4.7
01:30 - 02:00 4.0 48 5.4
02:00 - 02:30 4.7 44 9.4
02:30 - 03:00 7.2 31 10.8
03:00 - 03:30 11.2 23 13.7
03:30 - 04:00 9.4 45 13.3
04:00 - 04:30 9.0 61 11.9
04:30 - 05:00 6.5 105 10.8
05:00 - 05:30 4.3 130 9.0
05:30 - 06:00 4.3 140 6.1
06:00 - 06:30 3.6 118 8.3
06:30 - 07:00 9.0 65 14.8
07:00 - 07:30 18.0 60 27.0
07:30 - 08:00 19.4 50 29.9
08:00 - 08:30 23.4 37 31.7
08:30 - 09:00 24.5 37 32.0
09:00 - 09:30 21.6 38 31.3
09:30 - 10:00 19.1 46 27.4
10:00 - 10:30 18.0 59 25.9
10:30 - 11:00 14.8 66 20.2
11:00 - 11:30 15.1 60 19.4
11:30 - 12:00 12.6 50 18.0
12:00 - 12:30 13.7 64 18.4
12:30 - 13:00 14.4 68 19.8
13:00 - 13:30 13.7 67 19.1
13:30 - 14:00 14.0 55 23.0
14:00 - 14:30 15.1 46 24.8
14:30 - 15:00 14.4 67 21.6
15:00 - 15:30 12.6 97 19.8
15:30 - 16:00 12.6 89 18.4
16:00 - 16:30 11.5 77 14.8
16:30 - 17:00 9.7 60 14.0
17:00 - 17:30 11.5 34 16.9
17:30 - 18:00 18.0 32 23.4
18:00 - 18:30 (s/d) (s/d) (s/d)
18:30 - 19:00 (s/d) (s/d) (s/d)

Les dades en taronja només han passat un control de qualitat automàtic. Resta pendent la seva validació definitiva.